KFKN/FKN METAR and TAF weather

Enter ICAO airport designator
Station Type Date Time Source
KFKN METAR 2021/01/27 14:15 UTC NOAA

KFKN 271415Z AUTO 04003KT 7SM OVC007 07/06 A3009 RMK AO2 T00660063


Station Type Date Time Source
KFKN Decoded METAR 2021/01/27 14:15 UTC NOAA

Franklin / J B Rose, VA, United States (KFKN) 36-42N 076-54W
Jan 27, 2021 - 09:15 AM EST / 2021.01.27 1415 UTC
Wind: from the NE (040 degrees) at 3 MPH (3 KT):0
Visibility: 7 mile(s):0
Sky conditions: overcast
Temperature: 43.9 F (6.6 C)
Dew Point: 43.3 F (6.3 C)
Relative Humidity: 97%
Pressure (altimeter): 30.09 in. Hg (1018 hPa)
ob: KFKN 271415Z AUTO 04003KT 7SM OVC007 07/06 A3009 RMK AO2 T00660063
cycle: 14

Station Type Date Time Source
KFKN TAF UTC NOAA

Error!

Example: see airport list